sensor_id;sensor_type;location;lat;lon;timestamp;P1;durP1;ratioP1;P2;durP2;ratioP2
295;SDS011;132;48.770;9.200;2023-04-10T00:00:32;16.38;;;9.95;;
295;SDS011;132;48.770;9.200;2023-04-10T00:03:00;16.83;;;10.18;;
295;SDS011;132;48.770;9.200;2023-04-10T00:05:26;13.00;;;8.82;;
295;SDS011;132;48.770;9.200;2023-04-10T00:07:53;15.10;;;9.35;;
295;SDS011;132;48.770;9.200;2023-04-10T00:10:19;13.73;;;8.60;;
295;SDS011;132;48.770;9.200;2023-04-10T00:12:47;15.85;;;9.85;;
295;SDS011;132;48.770;9.200;2023-04-10T00:15:13;16.80;;;9.70;;
295;SDS011;132;48.770;9.200;2023-04-10T00:17:39;15.82;;;10.02;;
295;SDS011;132;48.770;9.200;2023-04-10T00:20:06;16.42;;;9.73;;
295;SDS011;132;48.770;9.200;2023-04-10T00:22:33;15.95;;;10.00;;
295;SDS011;132;48.770;9.200;2023-04-10T00:24:59;14.70;;;9.18;;
295;SDS011;132;48.770;9.200;2023-04-10T00:27:25;17.50;;;10.23;;
295;SDS011;132;48.770;9.200;2023-04-10T00:29:52;14.50;;;9.18;;
295;SDS011;132;48.770;9.200;2023-04-10T00:32:19;15.82;;;10.23;;
295;SDS011;132;48.770;9.200;2023-04-10T00:34:45;14.40;;;8.32;;
295;SDS011;132;48.770;9.200;2023-04-10T00:37:12;16.40;;;10.00;;
295;SDS011;132;48.770;9.200;2023-04-10T00:39:38;17.33;;;10.30;;
295;SDS011;132;48.770;9.200;2023-04-10T00:42:05;14.70;;;8.98;;
295;SDS011;132;48.770;9.200;2023-04-10T00:44:34;14.57;;;9.00;;
295;SDS011;132;48.770;9.200;2023-04-10T00:47:02;15.27;;;9.13;;
295;SDS011;132;48.770;9.200;2023-04-10T00:49:29;15.02;;;9.52;;
295;SDS011;132;48.770;9.200;2023-04-10T00:51:56;15.45;;;9.40;;
295;SDS011;132;48.770;9.200;2023-04-10T00:54:23;14.45;;;9.48;;
295;SDS011;132;48.770;9.200;2023-04-10T00:56:52;14.90;;;9.45;;
295;SDS011;132;48.770;9.200;2023-04-10T00:59:19;14.20;;;8.80;;
295;SDS011;132;48.770;9.200;2023-04-10T01:01:47;14.15;;;8.25;;
295;SDS011;132;48.770;9.200;2023-04-10T01:04:13;15.57;;;9.00;;
295;SDS011;132;48.770;9.200;2023-04-10T01:09:46;13.00;;;9.00;;
295;SDS011;132;48.770;9.200;2023-04-10T01:12:16;17.00;;;9.73;;
295;SDS011;132;48.770;9.200;2023-04-10T01:15:08;17.05;;;9.40;;
295;SDS011;132;48.770;9.200;2023-04-10T01:17:56;15.70;;;9.38;;
295;SDS011;132;48.770;9.200;2023-04-10T01:20:33;18.77;;;10.45;;
295;SDS011;132;48.770;9.200;2023-04-10T01:29:26;13.80;;;9.15;;
295;SDS011;132;48.770;9.200;2023-04-10T01:32:02;15.43;;;9.38;;
295;SDS011;132;48.770;9.200;2023-04-10T01:34:41;16.65;;;9.60;;
295;SDS011;132;48.770;9.200;2023-04-10T01:37:15;16.10;;;9.20;;
295;SDS011;132;48.770;9.200;2023-04-10T01:39:46;13.60;;;8.68;;
295;SDS011;132;48.770;9.200;2023-04-10T01:42:19;15.25;;;9.15;;
295;SDS011;132;48.770;9.200;2023-04-10T01:44:47;20.38;;;10.95;;
295;SDS011;132;48.770;9.200;2023-04-10T01:47:17;16.00;;;9.23;;
295;SDS011;132;48.770;9.200;2023-04-10T01:49:45;14.57;;;9.00;;
295;SDS011;132;48.770;9.200;2023-04-10T01:52:13;16.00;;;9.45;;
295;SDS011;132;48.770;9.200;2023-04-10T01:54:42;14.70;;;9.50;;
295;SDS011;132;48.770;9.200;2023-04-10T01:57:16;15.45;;;9.50;;
295;SDS011;132;48.770;9.200;2023-04-10T01:59:54;15.80;;;8.90;;
295;SDS011;132;48.770;9.200;2023-04-10T02:02:21;15.15;;;9.52;;
295;SDS011;132;48.770;9.200;2023-04-10T02:04:48;14.13;;;9.23;;
295;SDS011;132;48.770;9.200;2023-04-10T02:07:19;15.43;;;9.10;;
295;SDS011;132;48.770;9.200;2023-04-10T02:12:30;14.18;;;9.05;;
295;SDS011;132;48.770;9.200;2023-04-10T02:15:03;15.00;;;8.57;;
295;SDS011;132;48.770;9.200;2023-04-10T02:17:33;15.82;;;9.02;;
295;SDS011;132;48.770;9.200;2023-04-10T02:20:02;15.98;;;9.57;;
295;SDS011;132;48.770;9.200;2023-04-10T02:22:31;13.82;;;8.55;;
295;SDS011;132;48.770;9.200;2023-04-10T02:24:58;13.95;;;9.07;;
295;SDS011;132;48.770;9.200;2023-04-10T02:27:25;16.02;;;9.60;;
295;SDS011;132;48.770;9.200;2023-04-10T02:29:57;13.80;;;8.25;;
295;SDS011;132;48.770;9.200;2023-04-10T02:32:24;15.35;;;9.10;;
295;SDS011;132;48.770;9.200;2023-04-10T02:34:51;15.20;;;9.10;;
295;SDS011;132;48.770;9.200;2023-04-10T02:37:17;13.88;;;8.77;;
295;SDS011;132;48.770;9.200;2023-04-10T02:39:43;13.95;;;8.45;;
295;SDS011;132;48.770;9.200;2023-04-10T02:42:10;13.43;;;8.40;;
295;SDS011;132;48.770;9.200;2023-04-10T02:44:36;15.73;;;9.43;;
295;SDS011;132;48.770;9.200;2023-04-10T02:47:04;14.65;;;8.82;;
295;SDS011;132;48.770;9.200;2023-04-10T02:49:33;14.30;;;9.10;;
295;SDS011;132;48.770;9.200;2023-04-10T02:52:07;13.95;;;8.57;;
295;SDS011;132;48.770;9.200;2023-04-10T02:54:33;14.75;;;8.93;;
295;SDS011;132;48.770;9.200;2023-04-10T02:57:00;15.50;;;8.50;;
295;SDS011;132;48.770;9.200;2023-04-10T02:59:27;16.30;;;9.68;;
295;SDS011;132;48.770;9.200;2023-04-10T03:01:53;14.70;;;8.85;;
295;SDS011;132;48.770;9.200;2023-04-10T03:04:20;16.25;;;9.40;;
295;SDS011;132;48.770;9.200;2023-04-10T03:06:46;15.45;;;9.38;;
295;SDS011;132;48.770;9.200;2023-04-10T03:09:13;15.75;;;9.35;;
295;SDS011;132;48.770;9.200;2023-04-10T03:11:39;17.73;;;9.20;;
295;SDS011;132;48.770;9.200;2023-04-10T03:14:06;14.80;;;9.00;;
295;SDS011;132;48.770;9.200;2023-04-10T03:16:34;16.45;;;10.05;;
295;SDS011;132;48.770;9.200;2023-04-10T03:19:03;16.05;;;9.57;;
295;SDS011;132;48.770;9.200;2023-04-10T03:21:29;15.27;;;8.90;;
295;SDS011;132;48.770;9.200;2023-04-10T03:23:56;18.75;;;10.68;;
295;SDS011;132;48.770;9.200;2023-04-10T03:26:22;18.45;;;10.40;;
295;SDS011;132;48.770;9.200;2023-04-10T03:28:50;18.30;;;10.27;;
295;SDS011;132;48.770;9.200;2023-04-10T03:31:16;17.48;;;10.20;;
295;SDS011;132;48.770;9.200;2023-04-10T03:33:44;18.50;;;10.10;;
295;SDS011;132;48.770;9.200;2023-04-10T03:36:11;15.20;;;9.50;;
295;SDS011;132;48.770;9.200;2023-04-10T03:38:37;16.00;;;9.15;;
295;SDS011;132;48.770;9.200;2023-04-10T03:41:04;16.40;;;9.88;;
295;SDS011;132;48.770;9.200;2023-04-10T03:43:32;16.50;;;9.75;;
295;SDS011;132;48.770;9.200;2023-04-10T03:46:01;14.43;;;9.15;;
295;SDS011;132;48.770;9.200;2023-04-10T03:48:28;15.20;;;9.20;;
295;SDS011;132;48.770;9.200;2023-04-10T03:50:55;15.20;;;9.25;;
295;SDS011;132;48.770;9.200;2023-04-10T03:53:22;17.50;;;9.63;;
295;SDS011;132;48.770;9.200;2023-04-10T03:55:51;13.00;;;8.18;;
295;SDS011;132;48.770;9.200;2023-04-10T03:58:20;13.40;;;8.80;;
295;SDS011;132;48.770;9.200;2023-04-10T04:00:47;15.30;;;8.68;;
295;SDS011;132;48.770;9.200;2023-04-10T04:03:24;14.25;;;8.77;;
295;SDS011;132;48.770;9.200;2023-04-10T04:05:50;14.70;;;8.82;;
295;SDS011;132;48.770;9.200;2023-04-10T04:08:23;15.68;;;8.88;;
295;SDS011;132;48.770;9.200;2023-04-10T04:11:15;15.82;;;9.15;;
295;SDS011;132;48.770;9.200;2023-04-10T04:14:03;14.73;;;8.30;;
295;SDS011;132;48.770;9.200;2023-04-10T04:17:02;14.45;;;8.68;;
295;SDS011;132;48.770;9.200;2023-04-10T04:19:37;13.18;;;8.32;;
295;SDS011;132;48.770;9.200;2023-04-10T04:22:24;12.88;;;7.80;;
295;SDS011;132;48.770;9.200;2023-04-10T04:25:16;14.07;;;8.63;;
295;SDS011;132;48.770;9.200;2023-04-10T04:27:47;12.98;;;8.20;;
295;SDS011;132;48.770;9.200;2023-04-10T04:30:31;15.00;;;9.15;;
295;SDS011;132;48.770;9.200;2023-04-10T04:33:11;16.55;;;9.57;;
295;SDS011;132;48.770;9.200;2023-04-10T04:35:55;14.27;;;8.35;;
295;SDS011;132;48.770;9.200;2023-04-10T04:38:41;15.35;;;8.85;;
295;SDS011;132;48.770;9.200;2023-04-10T04:41:29;15.82;;;8.75;;
295;SDS011;132;48.770;9.200;2023-04-10T04:44:19;14.68;;;8.60;;
295;SDS011;132;48.770;9.200;2023-04-10T04:46:52;17.83;;;9.50;;
295;SDS011;132;48.770;9.200;2023-04-10T04:49:27;12.07;;;8.00;;
295;SDS011;132;48.770;9.200;2023-04-10T04:52:11;14.82;;;9.02;;
295;SDS011;132;48.770;9.200;2023-04-10T04:55:00;14.95;;;8.82;;
295;SDS011;132;48.770;9.200;2023-04-10T04:57:52;15.13;;;9.18;;
295;SDS011;132;48.770;9.200;2023-04-10T05:00:42;14.63;;;8.00;;
295;SDS011;132;48.770;9.200;2023-04-10T05:03:20;11.85;;;7.93;;
295;SDS011;132;48.770;9.200;2023-04-10T05:06:16;16.63;;;8.40;;
295;SDS011;132;48.770;9.200;2023-04-10T05:09:02;15.05;;;8.68;;
295;SDS011;132;48.770;9.200;2023-04-10T05:11:47;14.68;;;8.80;;
295;SDS011;132;48.770;9.200;2023-04-10T05:14:45;13.68;;;8.20;;
295;SDS011;132;48.770;9.200;2023-04-10T05:17:26;12.90;;;8.00;;
295;SDS011;132;48.770;9.200;2023-04-10T05:20:03;15.70;;;8.20;;
295;SDS011;132;48.770;9.200;2023-04-10T05:22:49;13.68;;;7.80;;
295;SDS011;132;48.770;9.200;2023-04-10T05:25:36;12.57;;;7.80;;
295;SDS011;132;48.770;9.200;2023-04-10T05:28:28;13.23;;;8.05;;
295;SDS011;132;48.770;9.200;2023-04-10T05:31:13;13.80;;;8.18;;
295;SDS011;132;48.770;9.200;2023-04-10T05:33:58;12.82;;;8.30;;
295;SDS011;132;48.770;9.200;2023-04-10T05:36:32;15.82;;;8.30;;
295;SDS011;132;48.770;9.200;2023-04-10T05:39:14;12.65;;;8.05;;
295;SDS011;132;48.770;9.200;2023-04-10T05:42:20;12.48;;;7.55;;
295;SDS011;132;48.770;9.200;2023-04-10T05:44:54;11.57;;;7.70;;
295;SDS011;132;48.770;9.200;2023-04-10T05:47:35;11.38;;;7.53;;
295;SDS011;132;48.770;9.200;2023-04-10T05:50:30;14.10;;;7.93;;
295;SDS011;132;48.770;9.200;2023-04-10T05:53:17;12.00;;;7.90;;
295;SDS011;132;48.770;9.200;2023-04-10T05:56:11;13.13;;;8.13;;
295;SDS011;132;48.770;9.200;2023-04-10T05:58:56;11.90;;;7.63;;
295;SDS011;132;48.770;9.200;2023-04-10T06:01:38;10.95;;;7.72;;
295;SDS011;132;48.770;9.200;2023-04-10T06:04:05;13.23;;;8.05;;
295;SDS011;132;48.770;9.200;2023-04-10T06:06:32;11.32;;;7.63;;
295;SDS011;132;48.770;9.200;2023-04-10T06:08:59;11.23;;;7.47;;
295;SDS011;132;48.770;9.200;2023-04-10T06:11:25;11.93;;;7.65;;
295;SDS011;132;48.770;9.200;2023-04-10T06:13:54;13.60;;;7.47;;
295;SDS011;132;48.770;9.200;2023-04-10T06:16:27;11.80;;;7.78;;
295;SDS011;132;48.770;9.200;2023-04-10T06:18:54;10.48;;;7.40;;
295;SDS011;132;48.770;9.200;2023-04-10T06:21:20;10.00;;;6.90;;
295;SDS011;132;48.770;9.200;2023-04-10T06:23:46;11.13;;;7.18;;
295;SDS011;132;48.770;9.200;2023-04-10T06:26:13;12.40;;;7.43;;
295;SDS011;132;48.770;9.200;2023-04-10T06:28:39;13.50;;;8.10;;
295;SDS011;132;48.770;9.200;2023-04-10T06:31:07;15.52;;;7.07;;
295;SDS011;132;48.770;9.200;2023-04-10T06:33:35;10.50;;;7.03;;
295;SDS011;132;48.770;9.200;2023-04-10T06:36:03;12.77;;;7.65;;
295;SDS011;132;48.770;9.200;2023-04-10T06:38:37;9.90;;;6.53;;
295;SDS011;132;48.770;9.200;2023-04-10T06:41:04;10.68;;;7.43;;
295;SDS011;132;48.770;9.200;2023-04-10T06:43:34;10.77;;;6.97;;
295;SDS011;132;48.770;9.200;2023-04-10T06:46:04;10.25;;;6.82;;
295;SDS011;132;48.770;9.200;2023-04-10T06:48:31;11.77;;;7.55;;
295;SDS011;132;48.770;9.200;2023-04-10T06:50:58;12.95;;;8.38;;
295;SDS011;132;48.770;9.200;2023-04-10T06:53:28;13.32;;;8.60;;
295;SDS011;132;48.770;9.200;2023-04-10T06:55:55;13.00;;;8.95;;
295;SDS011;132;48.770;9.200;2023-04-10T06:58:22;11.88;;;7.68;;
295;SDS011;132;48.770;9.200;2023-04-10T07:00:49;11.00;;;7.38;;
295;SDS011;132;48.770;9.200;2023-04-10T07:03:15;11.57;;;7.25;;
295;SDS011;132;48.770;9.200;2023-04-10T07:05:42;11.35;;;7.53;;
295;SDS011;132;48.770;9.200;2023-04-10T07:08:08;11.27;;;6.95;;
295;SDS011;132;48.770;9.200;2023-04-10T07:10:34;11.68;;;7.57;;
295;SDS011;132;48.770;9.200;2023-04-10T07:13:01;11.20;;;7.10;;
295;SDS011;132;48.770;9.200;2023-04-10T07:15:27;11.27;;;7.60;;
295;SDS011;132;48.770;9.200;2023-04-10T07:17:53;11.73;;;7.22;;
295;SDS011;132;48.770;9.200;2023-04-10T07:20:21;13.23;;;7.60;;
295;SDS011;132;48.770;9.200;2023-04-10T07:22:47;10.35;;;6.60;;
295;SDS011;132;48.770;9.200;2023-04-10T07:25:13;10.45;;;6.90;;
295;SDS011;132;48.770;9.200;2023-04-10T07:27:40;9.32;;;6.15;;
295;SDS011;132;48.770;9.200;2023-04-10T07:30:06;10.63;;;6.70;;
295;SDS011;132;48.770;9.200;2023-04-10T07:32:33;10.10;;;6.65;;
295;SDS011;132;48.770;9.200;2023-04-10T07:34:59;9.95;;;6.45;;
295;SDS011;132;48.770;9.200;2023-04-10T07:37:26;10.57;;;7.00;;
295;SDS011;132;48.770;9.200;2023-04-10T07:39:52;9.82;;;6.53;;
295;SDS011;132;48.770;9.200;2023-04-10T07:42:19;9.20;;;6.18;;
295;SDS011;132;48.770;9.200;2023-04-10T07:44:45;10.32;;;6.70;;
295;SDS011;132;48.770;9.200;2023-04-10T07:47:11;10.25;;;6.35;;
295;SDS011;132;48.770;9.200;2023-04-10T07:49:37;8.65;;;6.32;;
295;SDS011;132;48.770;9.200;2023-04-10T07:52:04;9.68;;;5.75;;
295;SDS011;132;48.770;9.200;2023-04-10T07:54:31;9.35;;;6.63;;
295;SDS011;132;48.770;9.200;2023-04-10T07:56:58;9.25;;;6.43;;
295;SDS011;132;48.770;9.200;2023-04-10T07:59:26;9.20;;;6.25;;
295;SDS011;132;48.770;9.200;2023-04-10T08:01:53;9.10;;;5.82;;
295;SDS011;132;48.770;9.200;2023-04-10T08:04:20;7.75;;;5.78;;
295;SDS011;132;48.770;9.200;2023-04-10T08:06:46;8.13;;;5.68;;
295;SDS011;132;48.770;9.200;2023-04-10T08:09:14;8.60;;;6.25;;
295;SDS011;132;48.770;9.200;2023-04-10T08:11:40;7.85;;;5.82;;
295;SDS011;132;48.770;9.200;2023-04-10T08:14:06;8.80;;;5.72;;
295;SDS011;132;48.770;9.200;2023-04-10T08:16:33;8.80;;;5.63;;
295;SDS011;132;48.770;9.200;2023-04-10T08:19:01;8.75;;;6.32;;
295;SDS011;132;48.770;9.200;2023-04-10T08:21:28;7.50;;;5.83;;
295;SDS011;132;48.770;9.200;2023-04-10T08:23:57;10.77;;;5.97;;
295;SDS011;132;48.770;9.200;2023-04-10T08:26:27;9.13;;;5.83;;
295;SDS011;132;48.770;9.200;2023-04-10T08:28:56;7.90;;;5.60;;
295;SDS011;132;48.770;9.200;2023-04-10T08:31:24;7.60;;;5.50;;
295;SDS011;132;48.770;9.200;2023-04-10T08:33:52;7.20;;;5.53;;
295;SDS011;132;48.770;9.200;2023-04-10T08:36:19;8.03;;;5.60;;
295;SDS011;132;48.770;9.200;2023-04-10T08:38:45;7.40;;;5.20;;
295;SDS011;132;48.770;9.200;2023-04-10T08:41:16;11.10;;;5.77;;
295;SDS011;132;48.770;9.200;2023-04-10T08:43:44;6.00;;;4.60;;
295;SDS011;132;48.770;9.200;2023-04-10T08:46:11;7.93;;;5.50;;
295;SDS011;132;48.770;9.200;2023-04-10T08:48:44;7.10;;;5.03;;
295;SDS011;132;48.770;9.200;2023-04-10T08:51:13;6.80;;;4.70;;
295;SDS011;132;48.770;9.200;2023-04-10T08:53:49;7.13;;;5.33;;
295;SDS011;132;48.770;9.200;2023-04-10T08:56:17;7.40;;;5.33;;
295;SDS011;132;48.770;9.200;2023-04-10T08:58:43;6.37;;;4.70;;
295;SDS011;132;48.770;9.200;2023-04-10T09:01:10;6.97;;;5.50;;
295;SDS011;132;48.770;9.200;2023-04-10T09:03:37;6.60;;;4.67;;
295;SDS011;132;48.770;9.200;2023-04-10T09:06:03;6.17;;;4.97;;
295;SDS011;132;48.770;9.200;2023-04-10T09:08:31;6.53;;;5.00;;
295;SDS011;132;48.770;9.200;2023-04-10T09:10:58;5.87;;;4.50;;
295;SDS011;132;48.770;9.200;2023-04-10T09:13:34;6.47;;;4.80;;
295;SDS011;132;48.770;9.200;2023-04-10T09:16:05;5.20;;;4.37;;
295;SDS011;132;48.770;9.200;2023-04-10T09:18:39;6.20;;;4.43;;
295;SDS011;132;48.770;9.200;2023-04-10T09:21:11;5.17;;;4.07;;
295;SDS011;132;48.770;9.200;2023-04-10T09:23:40;6.03;;;4.50;;
295;SDS011;132;48.770;9.200;2023-04-10T09:26:20;5.43;;;4.07;;
295;SDS011;132;48.770;9.200;2023-04-10T09:29:04;7.37;;;4.83;;
295;SDS011;132;48.770;9.200;2023-04-10T09:31:35;5.60;;;4.23;;
295;SDS011;132;48.770;9.200;2023-04-10T09:34:05;5.90;;;4.30;;
295;SDS011;132;48.770;9.200;2023-04-10T09:36:35;4.57;;;3.87;;
295;SDS011;132;48.770;9.200;2023-04-10T09:39:03;8.03;;;4.40;;
295;SDS011;132;48.770;9.200;2023-04-10T09:41:30;5.10;;;3.87;;
295;SDS011;132;48.770;9.200;2023-04-10T09:44:07;6.20;;;4.20;;
295;SDS011;132;48.770;9.200;2023-04-10T09:46:36;5.13;;;3.97;;
295;SDS011;132;48.770;9.200;2023-04-10T09:49:03;5.10;;;4.10;;
295;SDS011;132;48.770;9.200;2023-04-10T09:51:31;5.07;;;4.00;;
295;SDS011;132;48.770;9.200;2023-04-10T09:54:02;4.90;;;3.93;;
295;SDS011;132;48.770;9.200;2023-04-10T09:56:29;5.13;;;4.20;;
295;SDS011;132;48.770;9.200;2023-04-10T09:58:56;5.80;;;3.80;;
295;SDS011;132;48.770;9.200;2023-04-10T10:01:27;5.60;;;4.20;;
295;SDS011;132;48.770;9.200;2023-04-10T10:03:55;5.20;;;4.17;;
295;SDS011;132;48.770;9.200;2023-04-10T10:06:26;4.53;;;3.80;;
295;SDS011;132;48.770;9.200;2023-04-10T10:08:54;4.60;;;3.70;;
295;SDS011;132;48.770;9.200;2023-04-10T12:53:04;2.37;;;2.17;;
295;SDS011;132;48.770;9.200;2023-04-10T12:55:34;2.53;;;2.37;;
295;SDS011;132;48.770;9.200;2023-04-10T12:58:15;2.60;;;2.40;;
295;SDS011;132;48.770;9.200;2023-04-10T13:00:43;2.87;;;2.23;;
295;SDS011;132;48.770;9.200;2023-04-10T13:03:09;2.50;;;2.30;;
295;SDS011;132;48.770;9.200;2023-04-10T13:05:36;3.73;;;2.60;;
295;SDS011;132;48.770;9.200;2023-04-10T13:08:04;2.40;;;2.20;;
295;SDS011;132;48.770;9.200;2023-04-10T13:10:31;2.30;;;2.10;;
295;SDS011;132;48.770;9.200;2023-04-10T13:12:59;2.67;;;2.40;;
295;SDS011;132;48.770;9.200;2023-04-10T13:15:27;2.47;;;2.30;;
295;SDS011;132;48.770;9.200;2023-04-10T13:17:55;2.47;;;2.27;;
295;SDS011;132;48.770;9.200;2023-04-10T13:20:23;2.40;;;2.23;;
295;SDS011;132;48.770;9.200;2023-04-10T13:22:50;2.73;;;2.47;;
295;SDS011;132;48.770;9.200;2023-04-10T13:25:17;2.33;;;2.13;;
295;SDS011;132;48.770;9.200;2023-04-10T13:27:43;2.53;;;2.30;;
295;SDS011;132;48.770;9.200;2023-04-10T13:30:10;2.73;;;2.50;;
295;SDS011;132;48.770;9.200;2023-04-10T13:32:37;2.60;;;2.33;;
295;SDS011;132;48.770;9.200;2023-04-10T13:35:04;2.80;;;2.53;;
295;SDS011;132;48.770;9.200;2023-04-10T13:37:31;2.57;;;2.30;;
295;SDS011;132;48.770;9.200;2023-04-10T13:40:03;2.57;;;2.37;;
295;SDS011;132;48.770;9.200;2023-04-10T13:42:30;2.30;;;2.20;;
295;SDS011;132;48.770;9.200;2023-04-10T13:44:56;2.50;;;2.30;;
295;SDS011;132;48.770;9.200;2023-04-10T13:47:24;2.47;;;2.27;;
295;SDS011;132;48.770;9.200;2023-04-10T13:49:51;3.07;;;2.60;;
295;SDS011;132;48.770;9.200;2023-04-10T13:52:18;2.10;;;2.00;;
295;SDS011;132;48.770;9.200;2023-04-10T13:54:44;2.47;;;2.30;;
295;SDS011;132;48.770;9.200;2023-04-10T13:57:11;3.20;;;2.80;;
295;SDS011;132;48.770;9.200;2023-04-10T13:59:37;2.93;;;2.50;;
295;SDS011;132;48.770;9.200;2023-04-10T14:02:04;3.47;;;2.60;;
295;SDS011;132;48.770;9.200;2023-04-10T14:04:30;2.70;;;2.60;;
295;SDS011;132;48.770;9.200;2023-04-10T14:06:57;3.07;;;2.50;;
295;SDS011;132;48.770;9.200;2023-04-10T14:09:27;3.77;;;2.50;;
295;SDS011;132;48.770;9.200;2023-04-10T14:11:54;2.50;;;2.30;;
295;SDS011;132;48.770;9.200;2023-04-10T14:14:21;2.80;;;2.60;;
295;SDS011;132;48.770;9.200;2023-04-10T14:16:50;2.57;;;2.43;;
295;SDS011;132;48.770;9.200;2023-04-10T14:19:16;3.03;;;2.57;;
295;SDS011;132;48.770;9.200;2023-04-10T14:21:46;2.50;;;2.40;;
295;SDS011;132;48.770;9.200;2023-04-10T14:24:20;2.63;;;2.47;;
295;SDS011;132;48.770;9.200;2023-04-10T14:26:47;2.63;;;2.33;;
295;SDS011;132;48.770;9.200;2023-04-10T14:29:13;2.80;;;2.60;;
295;SDS011;132;48.770;9.200;2023-04-10T14:31:39;2.50;;;2.20;;
295;SDS011;132;48.770;9.200;2023-04-10T14:34:06;3.77;;;2.70;;
295;SDS011;132;48.770;9.200;2023-04-10T14:36:32;2.40;;;2.30;;
295;SDS011;132;48.770;9.200;2023-04-10T14:38:59;2.80;;;2.50;;
295;SDS011;132;48.770;9.200;2023-04-10T14:41:25;2.90;;;2.30;;
295;SDS011;132;48.770;9.200;2023-04-10T14:43:53;3.00;;;2.40;;
295;SDS011;132;48.770;9.200;2023-04-10T14:46:20;2.90;;;2.50;;
295;SDS011;132;48.770;9.200;2023-04-10T14:48:46;2.63;;;2.47;;
295;SDS011;132;48.770;9.200;2023-04-10T14:51:13;2.87;;;2.60;;
295;SDS011;132;48.770;9.200;2023-04-10T14:53:42;2.60;;;2.50;;
295;SDS011;132;48.770;9.200;2023-04-10T14:56:24;2.87;;;2.50;;
295;SDS011;132;48.770;9.200;2023-04-10T15:02:12;2.70;;;2.30;;
295;SDS011;132;48.770;9.200;2023-04-10T15:04:38;3.30;;;2.70;;
295;SDS011;132;48.770;9.200;2023-04-10T15:07:05;2.27;;;2.13;;
295;SDS011;132;48.770;9.200;2023-04-10T15:09:32;2.47;;;2.33;;
295;SDS011;132;48.770;9.200;2023-04-10T15:11:58;2.90;;;2.50;;
295;SDS011;132;48.770;9.200;2023-04-10T15:14:29;2.87;;;2.53;;
295;SDS011;132;48.770;9.200;2023-04-10T15:16:58;3.27;;;2.53;;
295;SDS011;132;48.770;9.200;2023-04-10T15:19:25;2.67;;;2.47;;
295;SDS011;132;48.770;9.200;2023-04-10T15:21:54;6.50;;;2.40;;
295;SDS011;132;48.770;9.200;2023-04-10T15:24:21;2.80;;;2.33;;
295;SDS011;132;48.770;9.200;2023-04-10T15:26:48;2.53;;;2.37;;
295;SDS011;132;48.770;9.200;2023-04-10T15:29:22;2.83;;;2.40;;
295;SDS011;132;48.770;9.200;2023-04-10T15:32:05;3.20;;;2.37;;
295;SDS011;132;48.770;9.200;2023-04-10T15:34:35;2.97;;;2.30;;
295;SDS011;132;48.770;9.200;2023-04-10T15:37:04;2.27;;;2.10;;
295;SDS011;132;48.770;9.200;2023-04-10T15:39:36;5.70;;;2.60;;
295;SDS011;132;48.770;9.200;2023-04-10T15:42:15;3.30;;;2.20;;
295;SDS011;132;48.770;9.200;2023-04-10T15:44:45;2.53;;;2.33;;
295;SDS011;132;48.770;9.200;2023-04-10T15:47:17;2.40;;;2.30;;
295;SDS011;132;48.770;9.200;2023-04-10T15:49:43;3.80;;;2.33;;
295;SDS011;132;48.770;9.200;2023-04-10T15:52:10;3.43;;;2.60;;
295;SDS011;132;48.770;9.200;2023-04-10T15:54:37;2.43;;;2.20;;
295;SDS011;132;48.770;9.200;2023-04-10T15:57:04;3.13;;;2.30;;
295;SDS011;132;48.770;9.200;2023-04-10T15:59:31;4.23;;;2.70;;
295;SDS011;132;48.770;9.200;2023-04-10T16:01:58;2.80;;;2.40;;
295;SDS011;132;48.770;9.200;2023-04-10T16:04:25;2.90;;;2.40;;
295;SDS011;132;48.770;9.200;2023-04-10T16:06:51;4.10;;;2.50;;
295;SDS011;132;48.770;9.200;2023-04-10T16:09:18;2.90;;;2.40;;
295;SDS011;132;48.770;9.200;2023-04-10T16:11:45;3.80;;;2.77;;
295;SDS011;132;48.770;9.200;2023-04-10T16:14:12;2.87;;;2.47;;
295;SDS011;132;48.770;9.200;2023-04-10T16:16:38;3.30;;;2.70;;
295;SDS011;132;48.770;9.200;2023-04-10T16:19:05;3.70;;;2.70;;
295;SDS011;132;48.770;9.200;2023-04-10T16:21:32;2.80;;;2.40;;
295;SDS011;132;48.770;9.200;2023-04-10T16:24:01;2.97;;;2.47;;
295;SDS011;132;48.770;9.200;2023-04-10T16:26:27;3.10;;;2.50;;
295;SDS011;132;48.770;9.200;2023-04-10T16:28:54;2.50;;;2.30;;
295;SDS011;132;48.770;9.200;2023-04-10T16:31:20;3.63;;;2.53;;
295;SDS011;132;48.770;9.200;2023-04-10T16:33:47;2.97;;;2.37;;
295;SDS011;132;48.770;9.200;2023-04-10T16:36:13;2.90;;;2.47;;
295;SDS011;132;48.770;9.200;2023-04-10T16:38:40;3.03;;;2.47;;
295;SDS011;132;48.770;9.200;2023-04-10T16:41:06;2.73;;;2.53;;
295;SDS011;132;48.770;9.200;2023-04-10T16:43:34;4.47;;;2.50;;
295;SDS011;132;48.770;9.200;2023-04-10T16:46:01;3.10;;;2.20;;
295;SDS011;132;48.770;9.200;2023-04-10T16:48:27;2.60;;;2.30;;
295;SDS011;132;48.770;9.200;2023-04-10T16:50:54;3.20;;;2.47;;
295;SDS011;132;48.770;9.200;2023-04-10T16:53:20;3.40;;;2.47;;
295;SDS011;132;48.770;9.200;2023-04-10T16:55:55;4.57;;;2.90;;
295;SDS011;132;48.770;9.200;2023-04-10T16:58:24;3.57;;;2.77;;
295;SDS011;132;48.770;9.200;2023-04-10T17:00:51;4.63;;;2.47;;
295;SDS011;132;48.770;9.200;2023-04-10T17:03:17;3.40;;;2.00;;
295;SDS011;132;48.770;9.200;2023-04-10T17:05:43;3.70;;;2.97;;
295;SDS011;132;48.770;9.200;2023-04-10T17:08:11;2.33;;;2.20;;
295;SDS011;132;48.770;9.200;2023-04-10T17:10:37;4.97;;;3.57;;
295;SDS011;132;48.770;9.200;2023-04-10T17:13:04;3.70;;;2.77;;
295;SDS011;132;48.770;9.200;2023-04-10T17:15:30;3.27;;;2.63;;
295;SDS011;132;48.770;9.200;2023-04-10T17:17:57;2.80;;;2.40;;
295;SDS011;132;48.770;9.200;2023-04-10T17:20:24;3.00;;;2.40;;
295;SDS011;132;48.770;9.200;2023-04-10T17:22:50;2.80;;;2.30;;
295;SDS011;132;48.770;9.200;2023-04-10T17:25:17;2.80;;;2.30;;
295;SDS011;132;48.770;9.200;2023-04-10T17:27:47;3.50;;;2.50;;
295;SDS011;132;48.770;9.200;2023-04-10T17:30:13;3.10;;;2.50;;
295;SDS011;132;48.770;9.200;2023-04-10T17:32:40;2.60;;;2.33;;
295;SDS011;132;48.770;9.200;2023-04-10T17:35:06;3.03;;;2.37;;
295;SDS011;132;48.770;9.200;2023-04-10T17:37:33;2.97;;;2.50;;
295;SDS011;132;48.770;9.200;2023-04-10T17:40:00;3.17;;;2.30;;
295;SDS011;132;48.770;9.200;2023-04-10T17:42:26;2.83;;;2.20;;
295;SDS011;132;48.770;9.200;2023-04-10T17:44:53;3.13;;;2.50;;
295;SDS011;132;48.770;9.200;2023-04-10T17:47:19;3.10;;;2.50;;
295;SDS011;132;48.770;9.200;2023-04-10T17:49:46;5.40;;;3.30;;
295;SDS011;132;48.770;9.200;2023-04-10T17:52:13;3.67;;;2.80;;
295;SDS011;132;48.770;9.200;2023-04-10T17:54:40;4.00;;;2.50;;
295;SDS011;132;48.770;9.200;2023-04-10T17:57:06;3.43;;;2.53;;
295;SDS011;132;48.770;9.200;2023-04-10T17:59:33;2.63;;;2.30;;
295;SDS011;132;48.770;9.200;2023-04-10T18:02:00;3.10;;;2.50;;
295;SDS011;132;48.770;9.200;2023-04-10T18:04:26;2.60;;;2.20;;
295;SDS011;132;48.770;9.200;2023-04-10T18:06:53;2.93;;;2.07;;
295;SDS011;132;48.770;9.200;2023-04-10T18:09:19;3.10;;;2.37;;
295;SDS011;132;48.770;9.200;2023-04-10T18:11:46;3.90;;;2.40;;
295;SDS011;132;48.770;9.200;2023-04-10T18:14:13;3.57;;;2.53;;
295;SDS011;132;48.770;9.200;2023-04-10T18:16:40;4.80;;;2.60;;
295;SDS011;132;48.770;9.200;2023-04-10T18:19:06;2.90;;;2.20;;
295;SDS011;132;48.770;9.200;2023-04-10T18:21:33;3.03;;;2.33;;
295;SDS011;132;48.770;9.200;2023-04-10T18:24:00;4.03;;;2.87;;
295;SDS011;132;48.770;9.200;2023-04-10T18:26:29;5.03;;;3.30;;
295;SDS011;132;48.770;9.200;2023-04-10T18:28:59;3.40;;;2.73;;
295;SDS011;132;48.770;9.200;2023-04-10T18:31:26;7.17;;;4.37;;
295;SDS011;132;48.770;9.200;2023-04-10T18:33:52;4.60;;;3.20;;
295;SDS011;132;48.770;9.200;2023-04-10T18:36:19;3.70;;;2.57;;
295;SDS011;132;48.770;9.200;2023-04-10T18:38:50;3.40;;;2.53;;
295;SDS011;132;48.770;9.200;2023-04-10T18:41:16;4.60;;;2.40;;
295;SDS011;132;48.770;9.200;2023-04-10T18:43:43;3.57;;;2.70;;
295;SDS011;132;48.770;9.200;2023-04-10T18:46:10;2.70;;;2.37;;
295;SDS011;132;48.770;9.200;2023-04-10T18:48:40;3.20;;;2.53;;
295;SDS011;132;48.770;9.200;2023-04-10T18:51:08;3.70;;;2.37;;